MBPVMBGT

Guest
Details From MBPV - Providenciales
To MBGT - Jags Mccartney Intl
Flight Number -
Tags generated
Created
Modified
Stats Distance 66 nm / 122 km
Max Altitude 0 ft / 0 m
Waypoints 3
Social Downloads 3
Likes 0
Share VATSIM

Download

Looking for another format? Having issues loading an existing format? Contact us
Advertisement - Login to hide

Notes

Basic altitude profile: - Ascent Rate: 2500ft/min - Ascent Speed: 250kts - Cruise Altitude: 35000ft - Cruise Speed: 420kts - Descent Rate: 1500ft/min - Descent Speed: 250kts Options: - Use NATs: yes - Use PACOTS: yes - Use low airways: yes - Use high airways: yes

Route

MBPV PVN MBGT

ID Type Via Altitude Latitude Longitude Leg Dist Tot Dist Heading (true) Name
O MBPV APT - 0 ft / 0 m 21.77360˚ -72.26590˚ - 0 nm - Providenciales
PVN VOR - 0 ft / 0 m 21.77225˚ -72.26603˚ 0 nm 0 nm 185° / 185° PROVIDENCIALES VOR-DME
O MBGT APT - 0 ft / 0 m 21.44453˚ -71.14232˚ 65 nm 65 nm 107° / 108° Jags Mccartney Intl

Altitude Profile

Advertisement - Login to hide

MBPV

Details ICAO MBPV (PLS)
Name Providenciales
Region Turks and Caicos Islands
Timezone America/Grand_Turk (UTC-4.0)
Stats Elevation 15 ft / 5 m (AMSL)
Location 21.773600° -72.265900°
Runways 1
Magnetic Variation 10.608° W

METAR

Not found

TAF

TAF MBPV 110400Z 1106/1206 06006KT 9999 SCT020 BKN080 PROB30 1108/1118 7000 SHRA BKN018

Decode

Departure Runways

ID Width Length Bearing (true) Bearing (mag) Surface Threshold Offset Overrun Length
10 148 ft / 45 m 7,584 ft / 2,312 m 93.01° 103.62° Asphalt 600 ft / 183 m 200 ft / 61 m
28 148 ft / 45 m 7,584 ft / 2,312 m 273.02° 283.63° Asphalt 0 ft / 0 m 200 ft / 61 m

MBGT

Details ICAO MBGT (GDT)
Name Jags Mccartney Intl
Region Turks and Caicos Islands
Timezone America/Grand_Turk (UTC-4.0)
Stats Elevation 13 ft / 4 m (AMSL)
Location 21.444530° -71.142325°
Runways 1
Magnetic Variation 11.136° W

METAR

Not found

TAF

MBGT 110400Z 1106/1206 06006KT 9999 SCT020 BKN080 PROB30 1108/1118 7000 SHRA BKN018

Decode

Destination Runways

ID Width Length Bearing (true) Bearing (mag) Surface Threshold Offset Overrun Length
11 151 ft / 46 m 6,363 ft / 1,939 m 104.48° 115.62° Asphalt 797 ft / 243 m 0 ft / 0 m
29 151 ft / 46 m 6,363 ft / 1,939 m 284.49° 295.63° Asphalt 0 ft / 0 m 358 ft / 109 m